^^
Station Historical Data
Daily Summary for February 16, 2017 Units:  English    Metric   Both
« Previous Day
Next Day »
Daily Weekly Monthly Yearly Custom
  High: Low: Average:
Temperature: 34.2 °F 25.4 °F 29.7 °F
Dew Point: 24.7 °F 15.3 °F 18.4 °F
Humidity: 75% 52% 63%
Wind Speed: 10.0mph 0.0mph 2.8mph
Wind Gust: 20.0mph - -
Wind- - SSW
Pressure: 29.80 in 29.47 in -
Precipitation: 0.00 in    
Historical Graphs
 
 
Tabular Data for February 16, 2017
Time Temperature Dew Point Pressure Wind Wind Speed Wind Gust Humidity Rainfall Rate (Hourly) Conditions
00:09 33.1 °F 24.7 °F 29.47 in South 2.0 mph 15.0 mph 71% 0.00 in -SN
00:19 32.8 °F 24.4 °F 29.47 in SE 1.0 mph 8.0 mph 71% 0.00 in -SN
00:29 32.8 °F 23.7 °F 29.47 in WSW 1.0 mph 9.0 mph 69% 0.00 in -SN
00:39 32.7 °F 23.3 °F 29.47 in West 1.0 mph 9.0 mph 68% 0.00 in -SN
00:49 32.5 °F 23.5 °F 29.47 in SE 1.0 mph 13.0 mph 69% 0.00 in -SN
00:59 32.3 °F 23.6 °F 29.48 in West 2.0 mph 12.0 mph 70% 0.00 in -SN
01:09 32.2 °F 24.2 °F 29.47 in WSW 1.0 mph 8.0 mph 72% 0.00 in -SN
01:19 32.1 °F 24.1 °F 29.47 in West 6.0 mph 13.0 mph 72% 0.00 in -SN
01:29 32.0 °F 23.3 °F 29.47 in SSE 3.0 mph 13.0 mph 70% 0.00 in -SN
01:39 32.0 °F 22.6 °F 29.47 in NW 2.0 mph 16.0 mph 68% 0.00 in -SN
01:49 31.7 °F 22.4 °F 29.48 in ENE 2.0 mph 9.0 mph 68% 0.00 in -SN
01:59 31.6 °F 21.9 °F 29.48 in West 2.0 mph 12.0 mph 67% 0.00 in -SN
02:09 31.4 °F 22.4 °F 29.48 in SW 2.0 mph 16.0 mph 69% 0.00 in -SN
02:19 31.3 °F 22.6 °F 29.48 in West 1.0 mph 10.0 mph 70% 0.00 in -SN
02:29 31.3 °F 23.0 °F 29.48 in SE 2.0 mph 10.0 mph 71% 0.00 in -SN
02:39 31.2 °F 22.9 °F 29.48 in NW 2.0 mph 8.0 mph 71% 0.00 in -SN
02:49 31.2 °F 23.2 °F 29.47 in NNE 2.0 mph 9.0 mph 72% 0.00 in -SN
02:59 31.1 °F 23.8 °F 29.47 in ENE 2.0 mph 6.0 mph 74% 0.00 in -SN
03:09 30.9 °F 23.9 °F 29.48 in South 3.0 mph 12.0 mph 75% 0.00 in -SN
03:19 30.8 °F 23.5 °F 29.48 in WSW 2.0 mph 8.0 mph 74% 0.00 in -SN
03:29 30.7 °F 23.4 °F 29.48 in WNW 3.0 mph 9.0 mph 74% 0.00 in -SN
03:39 30.6 °F 23.3 °F 29.49 in WNW 1.0 mph 8.0 mph 74% 0.00 in -SN
03:49 30.5 °F 23.2 °F 29.49 in East 2.0 mph 8.0 mph 74% 0.00 in -SN
03:59 30.4 °F 23.4 °F 29.49 in South 2.0 mph 6.0 mph 75% 0.00 in -SN
04:09 30.3 °F 23.0 °F 29.49 in WSW 1.0 mph 7.0 mph 74% 0.00 in -SN
04:19 30.2 °F 22.9 °F 29.50 in Calm   9.0 mph 74% 0.00 in -SN
04:29 30.2 °F 22.9 °F 29.50 in Calm   8.0 mph 74% 0.00 in -SN
04:39 30.1 °F 22.5 °F 29.50 in WSW 2.0 mph 9.0 mph 73% 0.00 in -SN
04:49 30.0 °F 21.7 °F 29.50 in SE 2.0 mph 6.0 mph 71% 0.00 in -SN
04:59 29.8 °F 21.5 °F 29.51 in NNE 1.0 mph 6.0 mph 71% 0.00 in -SN
05:09 29.8 °F 20.9 °F 29.51 in NNE 2.0 mph 10.0 mph 69% 0.00 in -SN
05:19 29.5 °F 20.6 °F 29.51 in NNW 2.0 mph 8.0 mph 69% 0.00 in -SN
05:39 28.9 °F 20.0 °F 29.52 in NNW 3.0 mph 12.0 mph 69% 0.00 in -SN
05:49 28.8 °F 19.9 °F 29.52 in North 3.0 mph 8.0 mph 69% 0.00 in -SN
05:59 28.6 °F 19.7 °F 29.53 in East 1.0 mph 10.0 mph 69% 0.00 in -SN
06:09 28.5 °F 19.6 °F 29.53 in NNE 2.0 mph 9.0 mph 69% 0.00 in -SN
06:19 28.3 °F 19.1 °F 29.53 in NNW 5.0 mph 12.0 mph 68% 0.00 in -SN
06:29 28.1 °F 18.5 °F 29.53 in SSW 1.0 mph 6.0 mph 67% 0.00 in -SN
06:39 27.9 °F 18.4 °F 29.54 in West 3.0 mph 10.0 mph 67% 0.00 in -SN
06:59 27.7 °F 18.2 °F 29.55 in West 2.0 mph 7.0 mph 67% 0.00 in -SN
07:09 27.6 °F 17.7 °F 29.55 in ENE 5.0 mph 15.0 mph 66% 0.00 in -SN
07:19 27.5 °F 17.6 °F 29.56 in WNW 3.0 mph 10.0 mph 66% 0.00 in -SN
07:29 27.4 °F 17.5 °F 29.56 in West 1.0 mph 7.0 mph 66% 0.00 in -SN
07:39 27.3 °F 17.1 °F 29.56 in WSW 3.0 mph 13.0 mph 65% 0.00 in -SN
07:49 27.3 °F 16.7 °F 29.57 in NW 3.0 mph 16.0 mph 64% 0.00 in -SN
07:59 27.4 °F 17.2 °F 29.57 in SW 1.0 mph 12.0 mph 65% 0.00 in -SN
08:09 27.6 °F 16.6 °F 29.58 in NNE 2.0 mph 18.0 mph 63% 0.00 in -SN
08:19 27.8 °F 16.8 °F 29.58 in NNW 2.0 mph 18.0 mph 63% 0.00 in -SN
08:29 28.0 °F 16.7 °F 29.57 in WSW 3.0 mph 12.0 mph 62% 0.00 in -SN
08:39 28.1 °F 16.0 °F 29.58 in SSW 3.0 mph 13.0 mph 60% 0.00 in -SN
08:49 28.4 °F 16.3 °F 29.58 in East 6.0 mph 18.0 mph 60% 0.00 in -SN
08:59 28.8 °F 16.6 °F 29.58 in SSE 3.0 mph 15.0 mph 60% 0.00 in -SN
09:09 29.3 °F 17.1 °F 29.58 in NNW 2.0 mph 14.0 mph 60% 0.00 in -SN
09:19 29.4 °F 16.4 °F 29.58 in West 5.0 mph 18.0 mph 58% 0.00 in -SN
09:29 29.6 °F 16.6 °F 29.59 in North 3.0 mph 13.0 mph 58% 0.00 in -SN
09:39 30.3 °F 17.2 °F 29.59 in West 1.0 mph 9.0 mph 58% 0.00 in -SN
09:49 30.5 °F 17.5 °F 29.58 in SW 3.0 mph 12.0 mph 58% 0.00 in -SN
09:59 30.6 °F 17.2 °F 29.58 in NW 2.0 mph 10.0 mph 57% 0.00 in -SN
10:09 30.4 °F 17.0 °F 29.59 in ESE 1.0 mph 12.0 mph 57% 0.00 in -SN
10:19 30.8 °F 17.3 °F 29.59 in WSW 2.0 mph 9.0 mph 57% 0.00 in -SN
10:29 31.5 °F 18.0 °F 29.59 in SSE 2.0 mph 12.0 mph 57% 0.00 in -SN
10:39 31.4 °F 17.9 °F 29.59 in West 2.0 mph 12.0 mph 57% 0.00 in -SN
10:49 32.1 °F 17.7 °F 29.59 in SSW 3.0 mph 9.0 mph 55% 0.00 in -SN
10:59 32.1 °F 18.2 °F 29.60 in WSW 2.0 mph 12.0 mph 56% 0.00 in -SN
11:09 32.0 °F 17.6 °F 29.60 in West 5.0 mph 12.0 mph 55% 0.00 in -SN
11:19 31.8 °F 17.9 °F 29.60 in WNW 2.0 mph 12.0 mph 56% 0.00 in -SN
11:29 32.5 °F 18.5 °F 29.60 in NE 2.0 mph 20.0 mph 56% 0.00 in -SN
11:39 32.8 °F 18.4 °F 29.59 in West 2.0 mph 12.0 mph 55% 0.00 in -SN
11:49 32.6 °F 18.2 °F 29.60 in WSW 2.0 mph 14.0 mph 55% 0.00 in -SN
11:59 33.0 °F 18.5 °F 29.60 in SW 2.0 mph 13.0 mph 55% 0.00 in -SN
12:09 33.3 °F 18.4 °F 29.60 in WSW 3.0 mph 12.0 mph 54% 0.00 in -SN
12:19 32.8 °F 18.0 °F 29.60 in West 7.0 mph 13.0 mph 54% 0.00 in -SN
12:29 33.0 °F 17.7 °F 29.60 in WSW 2.0 mph 13.0 mph 53% 0.00 in -SN
12:39 33.1 °F 17.8 °F 29.60 in NNE 5.0 mph 12.0 mph 53% 0.00 in -SN
12:49 32.9 °F 17.6 °F 29.60 in NNW 3.0 mph 14.0 mph 53% 0.00 in -SN
12:59 33.1 °F 17.8 °F 29.60 in SSW 5.0 mph 12.0 mph 53% 0.00 in -SN
13:09 32.7 °F 17.9 °F 29.60 in WNW 3.0 mph 14.0 mph 54% 0.00 in -SN
13:19 33.9 °F 19.0 °F 29.59 in West 2.0 mph 12.0 mph 54% 0.00 in -SN
13:29 34.2 °F 19.3 °F 29.60 in NNW 7.0 mph 13.0 mph 54% 0.00 in -SN
13:39 33.5 °F 17.7 °F 29.60 in WNW 7.0 mph 15.0 mph 52% 0.00 in -SN
13:49 33.0 °F 17.7 °F 29.60 in West 3.0 mph 12.0 mph 53% 0.00 in -SN
13:59 32.3 °F 17.5 °F 29.60 in WNW 2.0 mph 12.0 mph 54% 0.00 in -SN
14:09 32.3 °F 17.9 °F 29.61 in West 3.0 mph 15.0 mph 55% 0.00 in -SN
14:19 32.4 °F 18.0 °F 29.61 in South 3.0 mph 12.0 mph 55% 0.00 in -SN
14:29 32.6 °F 18.2 °F 29.61 in SW 3.0 mph 20.0 mph 55% 0.00 in -SN
14:39 32.6 °F 17.3 °F 29.61 in WSW 3.0 mph 16.0 mph 53% 0.00 in -SN
14:49 32.5 °F 17.7 °F 29.61 in WNW 5.0 mph 18.0 mph 54% 0.00 in -SN
14:59 32.7 °F 17.4 °F 29.62 in SW 3.0 mph 16.0 mph 53% 0.00 in -SN
15:09 32.8 °F 17.1 °F 29.62 in NW 5.0 mph 15.0 mph 52% 0.00 in -SN
15:19 32.9 °F 17.2 °F 29.62 in ENE 6.0 mph 14.0 mph 52% 0.00 in -SN
15:29 32.7 °F 17.9 °F 29.63 in WNW 2.0 mph 12.0 mph 54% 0.00 in -SN
15:39 32.5 °F 17.2 °F 29.63 in South 3.0 mph 20.0 mph 53% 0.00 in -SN
15:49 32.2 °F 17.4 °F 29.64 in West 3.0 mph 14.0 mph 54% 0.00 in -SN
15:59 31.6 °F 16.8 °F 29.64 in SW 5.0 mph 15.0 mph 54% 0.00 in -SN
16:19 31.3 °F 17.0 °F 29.65 in SSE 6.0 mph 14.0 mph 55% 0.00 in -SN
16:39 31.4 °F 17.5 °F 29.66 in NNW 10.0 mph 17.0 mph 56% 0.00 in -SN
16:49 30.8 °F 17.7 °F 29.66 in North 5.0 mph 14.0 mph 58% 0.00 in -SN
16:59 30.4 °F 17.4 °F 29.67 in SE 1.0 mph 13.0 mph 58% 0.00 in -SN
17:09 30.2 °F 17.2 °F 29.68 in NE 3.0 mph 12.0 mph 58% 0.00 in -SN
17:19 29.8 °F 16.8 °F 29.68 in West 2.0 mph 10.0 mph 58% 0.00 in -SN
17:29 29.4 °F 16.4 °F 29.68 in NNE 6.0 mph 13.0 mph 58% 0.00 in -SN
17:39 29.1 °F 16.5 °F 29.69 in South 3.0 mph 16.0 mph 59% 0.00 in -SN
17:49 28.9 °F 16.4 °F 29.69 in SW 6.0 mph 13.0 mph 59% 0.00 in -SN
17:59 28.6 °F 16.1 °F 29.70 in WNW 3.0 mph 13.0 mph 59% 0.00 in -SN
18:09 28.3 °F 16.2 °F 29.71 in NW 3.0 mph 12.0 mph 60% 0.00 in -SN
18:19 28.1 °F 16.4 °F 29.71 in West 5.0 mph 15.0 mph 61% 0.00 in -SN
18:29 27.9 °F 15.8 °F 29.72 in WSW 2.0 mph 10.0 mph 60% 0.00 in -SN
18:39 27.7 °F 16.0 °F 29.73 in ENE 1.0 mph 10.0 mph 61% 0.00 in -SN
18:49 27.6 °F 15.9 °F 29.73 in NNW 3.0 mph 20.0 mph 61% 0.00 in -SN
18:59 27.5 °F 15.8 °F 29.74 in North 1.0 mph 13.0 mph 61% 0.00 in -SN
19:09 27.3 °F 16.0 °F 29.74 in SSW 2.0 mph 20.0 mph 62% 0.00 in -SN
19:19 27.3 °F 16.4 °F 29.75 in WSW 1.0 mph 13.0 mph 63% 0.00 in -SN
19:29 27.2 °F 16.2 °F 29.75 in WSW 3.0 mph 14.0 mph 63% 0.00 in -SN
19:39 27.0 °F 16.1 °F 29.75 in WNW 3.0 mph 12.0 mph 63% 0.00 in -SN
19:49 26.9 °F 15.6 °F 29.76 in WNW 5.0 mph 15.0 mph 62% 0.00 in -SN
19:59 26.7 °F 15.8 °F 29.76 in NNW 3.0 mph 14.0 mph 63% 0.00 in -SN
20:09 26.7 °F 15.8 °F 29.77 in North 2.0 mph 20.0 mph 63% 0.00 in -SN
20:19 26.5 °F 16.0 °F 29.77 in NW 5.0 mph 14.0 mph 64% 0.00 in -SN
20:29 26.4 °F 15.8 °F 29.77 in NW 2.0 mph 15.0 mph 64% 0.00 in -SN
20:39 26.3 °F 16.1 °F 29.78 in NNE 2.0 mph 9.0 mph 65% 0.00 in -SN
20:49 26.0 °F 15.5 °F 29.78 in NNE 2.0 mph 14.0 mph 64% 0.00 in -SN
20:59 25.9 °F 15.4 °F 29.79 in North 5.0 mph 17.0 mph 64% 0.00 in -SN
21:09 25.8 °F 15.3 °F 29.79 in North 5.0 mph 16.0 mph 64% 0.00 in -SN
21:19 25.7 °F 15.6 °F 29.79 in NE 5.0 mph 8.0 mph 65% 0.00 in -SN
21:29 25.6 °F 15.5 °F 29.79 in Calm   12.0 mph 65% 0.00 in -SN
21:39 25.6 °F 15.5 °F 29.79 in ENE 6.0 mph 17.0 mph 65% 0.00 in -SN
21:49 25.7 °F 15.6 °F 29.79 in NNW 2.0 mph 14.0 mph 65% 0.00 in -SN
21:59 25.7 °F 15.6 °F 29.79 in WSW 3.0 mph 13.0 mph 65% 0.00 in -SN
22:09 25.7 °F 15.6 °F 29.79 in North 3.0 mph 15.0 mph 65% 0.00 in -SN
22:19 25.7 °F 15.9 °F 29.79 in North 1.0 mph 12.0 mph 66% 0.00 in -SN
22:29 25.7 °F 15.9 °F 29.79 in NE 2.0 mph 12.0 mph 66% 0.00 in -SN
22:39 25.7 °F 15.9 °F 29.79 in NE 1.0 mph 9.0 mph 66% 0.00 in -SN
22:49 25.7 °F 15.9 °F 29.79 in WNW 3.0 mph 8.0 mph 66% 0.00 in -SN
22:59 25.7 °F 15.9 °F 29.79 in North 3.0 mph 13.0 mph 66% 0.00 in -SN
23:09 25.7 °F 15.9 °F 29.79 in NNW 3.0 mph 12.0 mph 66% 0.00 in -SN
23:19 25.8 °F 16.3 °F 29.80 in West 1.0 mph 12.0 mph 67% 0.00 in -SN
23:29 25.7 °F 16.3 °F 29.80 in NNE 2.0 mph 14.0 mph 67% 0.00 in -SN
23:39 25.5 °F 16.4 °F 29.80 in ENE 1.0 mph 6.0 mph 68% 0.00 in -SN
23:49 25.4 °F 16.3 °F 29.80 in WNW 2.0 mph 12.0 mph 68% 0.00 in -SN
23:59 25.4 °F 16.3 °F 29.80 in WSW 2.0 mph 12.0 mph 68% 0.00 in -SN
TarryTown NY Weather
Compliments of Weather Underground - 1.75 mb